Shoho No.1 — JD3231 — position and weather

sailwx.info

Track history (hours):
 
Tides and Currents Weather Stations Pressure Air Temp Water Temp Dewpoint Dewpoint Depression Visibility Wind Speed Wind Dir Waves Ship Positions

Shoho No.1

Last reported at 2017-Oct-19 07:17 UTC. Time now 2017-Oct-22 17:13 UTC.
Position N 34°38' E 134°57'.

Length 56 m; draft 3.2 m.

Type: Cargo ship. MMSI: 431002893.

Date/timePositionNaut miles runAvg speedWind from/ knotsBaromVisibWave heightAir tempDewpointWater temp
2017-Oct-19 07:17N 34°38' E 134°57'410.7
2017-Oct-19 06:55N 34°37' E 135°01'4 9.4
2017-Oct-19 06:30N 34°36' E 135°06'611.5
2017-Oct-19 06:00N 34°37' E 135°13'611.2
2017-Oct-19 05:30N 34°38' E 135°19'510.6
2017-Oct-19 05:00N 34°39' E 135°26'0 0.2
2017-Oct-19 04:26N 34°40' E 135°26'0 0.0
2017-Oct-19 03:56N 34°40' E 135°26'0 0.0
2017-Oct-19 03:26N 34°40' E 135°26'0 0.0
2017-Oct-19 02:56N 34°40' E 135°26'0 0.0
2017-Oct-19 02:26N 34°40' E 135°26'0 0.3
2017-Oct-19 02:00N 34°39' E 135°26'1 0.8
2017-Oct-19 01:14N 34°40' E 135°26'0 0.0
2017-Oct-19 00:14N 34°40' E 135°26'0 0.0
2017-Oct-18 23:50N 34°40' E 135°26'0 0.0
2017-Oct-18 23:14N 34°40' E 135°26'0 0.0
2017-Oct-18 22:56N 34°40' E 135°26'0 0.0
2017-Oct-18 22:20N 34°40' E 135°26'0 0.0
2017-Oct-18 21:44N 34°40' E 135°26'0 0.0
2017-Oct-18 21:26N 34°40' E 135°26'0 0.0
2017-Oct-18 20:56N 34°40' E 135°26'0 0.0
2017-Oct-18 20:20N 34°40' E 135°26'0 0.0
2017-Oct-18 19:56N 34°40' E 135°26'0 0.0
2017-Oct-18 18:44N 34°40' E 135°26'0 0.0
2017-Oct-18 18:26N 34°40' E 135°26'0 0.0
2017-Oct-18 17:50N 34°40' E 135°26'0 0.0
2017-Oct-18 17:26N 34°40' E 135°26'0 0.0
2017-Oct-18 16:50N 34°40' E 135°26'0 0.0
2017-Oct-18 13:56N 34°40' E 135°26'0 0.0
2017-Oct-18 13:08N 34°40' E 135°26'0 0.0
2017-Oct-18 12:50N 34°40' E 135°26'1 3.7
2017-Oct-18 12:30N 34°39' E 135°25'5 9.1
2017-Oct-18 12:00N 34°36' E 135°21'4 8.9
2017-Oct-18 11:30N 34°36' E 135°15'5 9.1
2017-Oct-18 11:00N 34°35' E 135°10'4 8.9
2017-Oct-18 10:30N 34°35' E 135°04'3 6.4
2017-Oct-18 09:59N 34°37' E 135°01'  
2017-Oct-13 11:29N 34°38' E 134°56'5 9.6
2017-Oct-13 11:00N 34°37' E 135°02'5 9.6
2017-Oct-13 10:31N 34°36' E 135°07'510.7
2017-Oct-13 10:01N 34°36' E 135°14'611.1
2017-Oct-13 09:30N 34°36' E 135°21'510.4
2017-Oct-13 09:00N 34°35' E 135°27'0 0.0
2017-Oct-13 03:42N 34°35' E 135°27'1 3.4
2017-Oct-13 03:30N 34°35' E 135°26'5 9.2
2017-Oct-13 03:00N 34°36' E 135°21'5 9.5
2017-Oct-13 02:30N 34°36' E 135°15'5 9.6
2017-Oct-13 02:00N 34°35' E 135°09'510.3
2017-Oct-13 01:30N 34°36' E 135°03'  
Track history (hours):
 
Tides and Currents Weather Stations Pressure Air Temp Water Temp Dewpoint Dewpoint Depression Visibility Wind Speed Wind Dir Waves Ship Positions

Shoho No.1

Last reported at 2017-Oct-19 07:17 UTC. Time now 2017-Oct-22 17:13 UTC.
Position N 34°38' E 134°57'.

Length 56 m; draft 3.2 m.

Type: Cargo ship. MMSI: 431002893.

Date/timePositionNaut miles runAvg speedWind from/ knotsBaromVisibWave heightAir tempDewpointWater temp
2017-Oct-19 07:17N 34°38' E 134°57'410.7
2017-Oct-19 06:55N 34°37' E 135°01'4 9.4
2017-Oct-19 06:30N 34°36' E 135°06'611.5
2017-Oct-19 06:00N 34°37' E 135°13'611.2
2017-Oct-19 05:30N 34°38' E 135°19'510.6
2017-Oct-19 05:00N 34°39' E 135°26'0 0.2
2017-Oct-19 04:26N 34°40' E 135°26'0 0.0
2017-Oct-19 03:56N 34°40' E 135°26'0 0.0
2017-Oct-19 03:26N 34°40' E 135°26'0 0.0
2017-Oct-19 02:56N 34°40' E 135°26'0 0.0
2017-Oct-19 02:26N 34°40' E 135°26'0 0.3
2017-Oct-19 02:00N 34°39' E 135°26'1 0.8
2017-Oct-19 01:14N 34°40' E 135°26'0 0.0
2017-Oct-19 00:14N 34°40' E 135°26'0 0.0
2017-Oct-18 23:50N 34°40' E 135°26'0 0.0
2017-Oct-18 23:14N 34°40' E 135°26'0 0.0
2017-Oct-18 22:56N 34°40' E 135°26'0 0.0
2017-Oct-18 22:20N 34°40' E 135°26'0 0.0
2017-Oct-18 21:44N 34°40' E 135°26'0 0.0
2017-Oct-18 21:26N 34°40' E 135°26'0 0.0
2017-Oct-18 20:56N 34°40' E 135°26'0 0.0
2017-Oct-18 20:20N 34°40' E 135°26'0 0.0
2017-Oct-18 19:56N 34°40' E 135°26'0 0.0
2017-Oct-18 18:44N 34°40' E 135°26'0 0.0
2017-Oct-18 18:26N 34°40' E 135°26'0 0.0
2017-Oct-18 17:50N 34°40' E 135°26'0 0.0
2017-Oct-18 17:26N 34°40' E 135°26'0 0.0
2017-Oct-18 16:50N 34°40' E 135°26'0 0.0
2017-Oct-18 13:56N 34°40' E 135°26'0 0.0
2017-Oct-18 13:08N 34°40' E 135°26'0 0.0
2017-Oct-18 12:50N 34°40' E 135°26'1 3.7
2017-Oct-18 12:30N 34°39' E 135°25'5 9.1
2017-Oct-18 12:00N 34°36' E 135°21'4 8.9
2017-Oct-18 11:30N 34°36' E 135°15'5 9.1
2017-Oct-18 11:00N 34°35' E 135°10'4 8.9
2017-Oct-18 10:30N 34°35' E 135°04'3 6.4
2017-Oct-18 09:59N 34°37' E 135°01'  
2017-Oct-13 11:29N 34°38' E 134°56'5 9.6
2017-Oct-13 11:00N 34°37' E 135°02'5 9.6
2017-Oct-13 10:31N 34°36' E 135°07'510.7
2017-Oct-13 10:01N 34°36' E 135°14'611.1
2017-Oct-13 09:30N 34°36' E 135°21'510.4
2017-Oct-13 09:00N 34°35' E 135°27'0 0.0
2017-Oct-13 03:42N 34°35' E 135°27'1 3.4
2017-Oct-13 03:30N 34°35' E 135°26'5 9.2
2017-Oct-13 03:00N 34°36' E 135°21'5 9.5
2017-Oct-13 02:30N 34°36' E 135°15'5 9.6
2017-Oct-13 02:00N 34°35' E 135°09'510.3
2017-Oct-13 01:30N 34°36' E 135°03'  

Dump ship's entire track history